sensor_id;sensor_type;location;lat;lon;timestamp;temperature;humidity
36586;DHT22;22591;48.314;11.562;2022-12-07T00:02:14;3.00;99.90
36586;DHT22;22591;48.314;11.562;2022-12-07T00:04:40;3.10;99.90
36586;DHT22;22591;48.314;11.562;2022-12-07T00:07:05;3.10;99.90
36586;DHT22;22591;48.314;11.562;2022-12-07T00:09:31;3.10;99.90
36586;DHT22;22591;48.314;11.562;2022-12-07T00:11:56;3.20;99.90
36586;DHT22;22591;48.314;11.562;2022-12-07T00:14:22;3.10;99.90
36586;DHT22;22591;48.314;11.562;2022-12-07T00:16:50;3.10;99.90
36586;DHT22;22591;48.314;11.562;2022-12-07T00:19:16;3.10;99.90
36586;DHT22;22591;48.314;11.562;2022-12-07T00:21:42;3.10;99.90
36586;DHT22;22591;48.314;11.562;2022-12-07T00:24:07;3.10;99.90
36586;DHT22;22591;48.314;11.562;2022-12-07T00:26:35;3.10;99.90
36586;DHT22;22591;48.314;11.562;2022-12-07T00:29:20;3.10;99.90
36586;DHT22;22591;48.314;11.562;2022-12-07T00:31:47;3.10;99.90
36586;DHT22;22591;48.314;11.562;2022-12-07T00:34:15;3.10;99.90
36586;DHT22;22591;48.314;11.562;2022-12-07T00:36:40;3.20;99.90
36586;DHT22;22591;48.314;11.562;2022-12-07T00:39:06;3.10;99.90
36586;DHT22;22591;48.314;11.562;2022-12-07T00:41:31;3.10;99.90
36586;DHT22;22591;48.314;11.562;2022-12-07T00:43:57;3.10;99.90
36586;DHT22;22591;48.314;11.562;2022-12-07T00:46:24;3.10;99.90
36586;DHT22;22591;48.314;11.562;2022-12-07T00:48:50;3.10;99.90
36586;DHT22;22591;48.314;11.562;2022-12-07T00:51:17;3.10;99.90
36586;DHT22;22591;48.314;11.562;2022-12-07T00:53:43;3.10;99.90
36586;DHT22;22591;48.314;11.562;2022-12-07T00:56:12;3.10;99.90
36586;DHT22;22591;48.314;11.562;2022-12-07T00:58:38;3.10;99.90
36586;DHT22;22591;48.314;11.562;2022-12-07T01:01:05;3.10;99.90
36586;DHT22;22591;48.314;11.562;2022-12-07T01:03:31;3.10;99.90
36586;DHT22;22591;48.314;11.562;2022-12-07T01:05:56;3.10;99.90
36586;DHT22;22591;48.314;11.562;2022-12-07T01:08:23;3.10;99.90
36586;DHT22;22591;48.314;11.562;2022-12-07T01:10:56;3.10;99.90
36586;DHT22;22591;48.314;11.562;2022-12-07T01:13:22;3.00;99.90
36586;DHT22;22591;48.314;11.562;2022-12-07T01:15:48;3.00;99.90
36586;DHT22;22591;48.314;11.562;2022-12-07T01:18:13;3.00;99.90
36586;DHT22;22591;48.314;11.562;2022-12-07T01:20:39;3.10;99.90
36586;DHT22;22591;48.314;11.562;2022-12-07T01:23:04;3.10;99.90
36586;DHT22;22591;48.314;11.562;2022-12-07T01:25:30;3.10;99.90
36586;DHT22;22591;48.314;11.562;2022-12-07T01:27:56;3.10;99.90
36586;DHT22;22591;48.314;11.562;2022-12-07T01:30:21;3.10;99.90
36586;DHT22;22591;48.314;11.562;2022-12-07T01:32:47;3.10;99.90
36586;DHT22;22591;48.314;11.562;2022-12-07T01:35:12;3.00;99.90
36586;DHT22;22591;48.314;11.562;2022-12-07T01:37:38;3.00;99.90
36586;DHT22;22591;48.314;11.562;2022-12-07T01:40:08;3.10;99.90
36586;DHT22;22591;48.314;11.562;2022-12-07T01:42:34;3.10;99.90
36586;DHT22;22591;48.314;11.562;2022-12-07T01:47:46;3.10;99.90
36586;DHT22;22591;48.314;11.562;2022-12-07T01:50:15;3.10;99.90
36586;DHT22;22591;48.314;11.562;2022-12-07T01:52:42;3.10;99.90
36586;DHT22;22591;48.314;11.562;2022-12-07T01:55:12;3.10;99.90
36586;DHT22;22591;48.314;11.562;2022-12-07T01:57:43;3.10;99.90
36586;DHT22;22591;48.314;11.562;2022-12-07T02:00:13;3.10;99.90
36586;DHT22;22591;48.314;11.562;2022-12-07T02:03:05;3.00;99.90
36586;DHT22;22591;48.314;11.562;2022-12-07T02:05:33;3.00;99.90
36586;DHT22;22591;48.314;11.562;2022-12-07T02:08:00;3.00;99.90
36586;DHT22;22591;48.314;11.562;2022-12-07T02:10:28;3.00;99.90
36586;DHT22;22591;48.314;11.562;2022-12-07T02:13:13;3.00;99.90
36586;DHT22;22591;48.314;11.562;2022-12-07T02:30:00;2.90;99.90
36586;DHT22;22591;48.314;11.562;2022-12-07T02:32:51;2.80;99.90
36586;DHT22;22591;48.314;11.562;2022-12-07T02:35:22;2.90;99.90
36586;DHT22;22591;48.314;11.562;2022-12-07T02:40:52;2.80;99.90
36586;DHT22;22591;48.314;11.562;2022-12-07T02:43:25;2.80;99.90
36586;DHT22;22591;48.314;11.562;2022-12-07T02:45:55;2.80;99.90
36586;DHT22;22591;48.314;11.562;2022-12-07T02:48:23;2.80;99.90
36586;DHT22;22591;48.314;11.562;2022-12-07T02:50:50;2.80;99.90
36586;DHT22;22591;48.314;11.562;2022-12-07T02:53:47;2.80;99.90
36586;DHT22;22591;48.314;11.562;2022-12-07T03:10:27;2.70;99.90
36586;DHT22;22591;48.314;11.562;2022-12-07T03:13:21;2.80;99.90
36586;DHT22;22591;48.314;11.562;2022-12-07T03:18:25;2.80;99.90
36586;DHT22;22591;48.314;11.562;2022-12-07T03:20:55;2.80;99.90
36586;DHT22;22591;48.314;11.562;2022-12-07T03:23:23;2.90;99.90
36586;DHT22;22591;48.314;11.562;2022-12-07T03:25:55;2.90;99.90
36586;DHT22;22591;48.314;11.562;2022-12-07T03:28:24;2.90;99.90
36586;DHT22;22591;48.314;11.562;2022-12-07T03:31:17;2.90;99.90
36586;DHT22;22591;48.314;11.562;2022-12-07T03:34:03;2.90;99.90
36586;DHT22;22591;48.314;11.562;2022-12-07T03:36:45;2.90;99.90
36586;DHT22;22591;48.314;11.562;2022-12-07T03:39:15;2.90;99.90
36586;DHT22;22591;48.314;11.562;2022-12-07T03:41:42;2.90;99.90
36586;DHT22;22591;48.314;11.562;2022-12-07T03:44:08;2.90;99.90
36586;DHT22;22591;48.314;11.562;2022-12-07T03:49:25;2.90;99.90
36586;DHT22;22591;48.314;11.562;2022-12-07T03:52:10;2.90;99.90
36586;DHT22;22591;48.314;11.562;2022-12-07T03:54:41;2.90;99.90
36586;DHT22;22591;48.314;11.562;2022-12-07T03:57:10;2.90;99.90
36586;DHT22;22591;48.314;11.562;2022-12-07T03:59:37;2.90;99.90
36586;DHT22;22591;48.314;11.562;2022-12-07T04:02:05;3.00;99.90
36586;DHT22;22591;48.314;11.562;2022-12-07T04:04:31;3.00;99.90
36586;DHT22;22591;48.314;11.562;2022-12-07T04:06:57;2.90;99.90
36586;DHT22;22591;48.314;11.562;2022-12-07T04:09:23;2.90;99.90
36586;DHT22;22591;48.314;11.562;2022-12-07T04:11:49;2.90;99.90
36586;DHT22;22591;48.314;11.562;2022-12-07T04:14:14;3.00;99.90
36586;DHT22;22591;48.314;11.562;2022-12-07T04:16:54;3.00;99.90
36586;DHT22;22591;48.314;11.562;2022-12-07T04:19:24;3.00;99.90
36586;DHT22;22591;48.314;11.562;2022-12-07T04:21:49;3.00;99.90
36586;DHT22;22591;48.314;11.562;2022-12-07T04:24:15;3.00;99.90
36586;DHT22;22591;48.314;11.562;2022-12-07T04:26:41;2.90;99.90
36586;DHT22;22591;48.314;11.562;2022-12-07T04:29:08;2.90;99.90
36586;DHT22;22591;48.314;11.562;2022-12-07T04:31:34;2.90;99.90
36586;DHT22;22591;48.314;11.562;2022-12-07T04:34:00;2.90;99.90
36586;DHT22;22591;48.314;11.562;2022-12-07T04:36:25;2.90;99.90
36586;DHT22;22591;48.314;11.562;2022-12-07T04:38:53;2.90;99.90
36586;DHT22;22591;48.314;11.562;2022-12-07T04:41:20;3.00;99.90
36586;DHT22;22591;48.314;11.562;2022-12-07T04:44:02;2.90;99.90
36586;DHT22;22591;48.314;11.562;2022-12-07T04:46:30;2.90;99.90
36586;DHT22;22591;48.314;11.562;2022-12-07T04:48:56;2.90;99.90
36586;DHT22;22591;48.314;11.562;2022-12-07T04:51:26;2.80;99.90
36586;DHT22;22591;48.314;11.562;2022-12-07T04:53:53;2.80;99.90
36586;DHT22;22591;48.314;11.562;2022-12-07T04:56:19;2.80;99.90
36586;DHT22;22591;48.314;11.562;2022-12-07T04:58:46;2.80;99.90
36586;DHT22;22591;48.314;11.562;2022-12-07T05:01:12;2.70;99.90
36586;DHT22;22591;48.314;11.562;2022-12-07T05:03:38;2.70;99.90
36586;DHT22;22591;48.314;11.562;2022-12-07T05:06:04;2.80;99.90
36586;DHT22;22591;48.314;11.562;2022-12-07T05:08:30;2.80;99.90
36586;DHT22;22591;48.314;11.562;2022-12-07T05:10:57;2.80;99.90
36586;DHT22;22591;48.314;11.562;2022-12-07T05:13:22;2.80;99.90
36586;DHT22;22591;48.314;11.562;2022-12-07T05:15:48;2.70;99.90
36586;DHT22;22591;48.314;11.562;2022-12-07T05:18:14;2.70;99.90
36586;DHT22;22591;48.314;11.562;2022-12-07T05:20:41;2.80;99.90
36586;DHT22;22591;48.314;11.562;2022-12-07T05:23:07;2.70;99.90
36586;DHT22;22591;48.314;11.562;2022-12-07T05:25:33;2.80;99.90
36586;DHT22;22591;48.314;11.562;2022-12-07T05:27:59;2.70;99.90
36586;DHT22;22591;48.314;11.562;2022-12-07T05:30:25;2.70;99.90
36586;DHT22;22591;48.314;11.562;2022-12-07T05:32:51;2.70;99.90
36586;DHT22;22591;48.314;11.562;2022-12-07T05:35:17;2.70;99.90
36586;DHT22;22591;48.314;11.562;2022-12-07T05:37:43;2.60;99.90
36586;DHT22;22591;48.314;11.562;2022-12-07T05:40:10;2.60;99.90
36586;DHT22;22591;48.314;11.562;2022-12-07T05:42:35;2.60;99.90
36586;DHT22;22591;48.314;11.562;2022-12-07T05:45:01;2.70;99.90
36586;DHT22;22591;48.314;11.562;2022-12-07T05:47:27;2.70;99.90
36586;DHT22;22591;48.314;11.562;2022-12-07T05:49:52;2.60;99.90
36586;DHT22;22591;48.314;11.562;2022-12-07T05:52:18;2.70;99.90
36586;DHT22;22591;48.314;11.562;2022-12-07T05:54:44;2.60;99.90
36586;DHT22;22591;48.314;11.562;2022-12-07T05:57:09;2.60;99.90
36586;DHT22;22591;48.314;11.562;2022-12-07T05:59:35;2.60;99.90
36586;DHT22;22591;48.314;11.562;2022-12-07T06:02:03;2.60;99.90
36586;DHT22;22591;48.314;11.562;2022-12-07T06:04:31;2.50;99.90
36586;DHT22;22591;48.314;11.562;2022-12-07T06:06:57;2.50;99.90
36586;DHT22;22591;48.314;11.562;2022-12-07T06:09:24;2.50;99.90
36586;DHT22;22591;48.314;11.562;2022-12-07T06:11:50;2.50;99.90
36586;DHT22;22591;48.314;11.562;2022-12-07T06:14:34;2.50;99.90
36586;DHT22;22591;48.314;11.562;2022-12-07T06:17:00;2.50;99.90
36586;DHT22;22591;48.314;11.562;2022-12-07T06:19:26;2.50;99.90
36586;DHT22;22591;48.314;11.562;2022-12-07T06:21:51;2.40;99.90
36586;DHT22;22591;48.314;11.562;2022-12-07T06:24:17;2.40;99.90
36586;DHT22;22591;48.314;11.562;2022-12-07T06:26:44;2.40;99.90
36586;DHT22;22591;48.314;11.562;2022-12-07T06:29:10;2.40;99.90
36586;DHT22;22591;48.314;11.562;2022-12-07T06:31:36;2.40;99.90
36586;DHT22;22591;48.314;11.562;2022-12-07T06:34:05;2.40;99.90
36586;DHT22;22591;48.314;11.562;2022-12-07T06:36:31;2.30;99.90
36586;DHT22;22591;48.314;11.562;2022-12-07T06:38:57;2.30;99.90
36586;DHT22;22591;48.314;11.562;2022-12-07T06:41:23;2.40;99.90
36586;DHT22;22591;48.314;11.562;2022-12-07T06:43:49;2.40;99.90
36586;DHT22;22591;48.314;11.562;2022-12-07T06:46:15;2.40;99.90
36586;DHT22;22591;48.314;11.562;2022-12-07T06:48:41;2.40;99.90
36586;DHT22;22591;48.314;11.562;2022-12-07T06:51:07;2.30;99.90
36586;DHT22;22591;48.314;11.562;2022-12-07T06:53:33;2.30;99.90
36586;DHT22;22591;48.314;11.562;2022-12-07T06:55:58;2.30;99.90
36586;DHT22;22591;48.314;11.562;2022-12-07T06:58:24;2.20;99.90
36586;DHT22;22591;48.314;11.562;2022-12-07T07:00:49;2.20;99.90
36586;DHT22;22591;48.314;11.562;2022-12-07T07:03:16;2.20;99.90
36586;DHT22;22591;48.314;11.562;2022-12-07T07:05:42;2.20;99.90
36586;DHT22;22591;48.314;11.562;2022-12-07T07:08:08;2.20;99.90
36586;DHT22;22591;48.314;11.562;2022-12-07T07:10:34;2.20;99.90
36586;DHT22;22591;48.314;11.562;2022-12-07T07:13:00;2.20;99.90
36586;DHT22;22591;48.314;11.562;2022-12-07T07:15:26;2.20;99.90
36586;DHT22;22591;48.314;11.562;2022-12-07T07:17:51;2.20;99.90
36586;DHT22;22591;48.314;11.562;2022-12-07T07:20:17;2.10;99.90
36586;DHT22;22591;48.314;11.562;2022-12-07T07:22:42;2.10;99.90
36586;DHT22;22591;48.314;11.562;2022-12-07T07:25:08;2.10;99.90
36586;DHT22;22591;48.314;11.562;2022-12-07T07:27:34;2.10;99.90
36586;DHT22;22591;48.314;11.562;2022-12-07T07:29:59;2.00;99.90
36586;DHT22;22591;48.314;11.562;2022-12-07T07:32:25;2.00;99.90
36586;DHT22;22591;48.314;11.562;2022-12-07T07:34:50;2.00;99.90
36586;DHT22;22591;48.314;11.562;2022-12-07T07:37:16;2.00;99.90
36586;DHT22;22591;48.314;11.562;2022-12-07T07:39:41;2.00;99.90
36586;DHT22;22591;48.314;11.562;2022-12-07T07:42:07;2.10;99.90
36586;DHT22;22591;48.314;11.562;2022-12-07T07:44:36;2.10;99.90
36586;DHT22;22591;48.314;11.562;2022-12-07T07:47:02;2.10;99.90
36586;DHT22;22591;48.314;11.562;2022-12-07T07:49:28;2.20;99.90
36586;DHT22;22591;48.314;11.562;2022-12-07T07:51:53;2.00;99.90
36586;DHT22;22591;48.314;11.562;2022-12-07T07:54:19;2.10;99.90
36586;DHT22;22591;48.314;11.562;2022-12-07T07:56:44;2.00;99.90
36586;DHT22;22591;48.314;11.562;2022-12-07T07:59:10;2.10;99.90
36586;DHT22;22591;48.314;11.562;2022-12-07T08:01:35;2.10;99.90
36586;DHT22;22591;48.314;11.562;2022-12-07T08:04:01;2.10;99.90
36586;DHT22;22591;48.314;11.562;2022-12-07T08:06:26;2.10;99.90
36586;DHT22;22591;48.314;11.562;2022-12-07T08:08:52;2.20;99.90
36586;DHT22;22591;48.314;11.562;2022-12-07T08:11:18;2.20;99.90
36586;DHT22;22591;48.314;11.562;2022-12-07T08:13:45;2.30;99.90
36586;DHT22;22591;48.314;11.562;2022-12-07T08:16:13;2.40;99.90
36586;DHT22;22591;48.314;11.562;2022-12-07T08:18:41;2.50;99.90
36586;DHT22;22591;48.314;11.562;2022-12-07T08:21:11;2.60;99.90
36586;DHT22;22591;48.314;11.562;2022-12-07T08:23:37;2.60;99.90
36586;DHT22;22591;48.314;11.562;2022-12-07T08:26:04;2.60;99.90
36586;DHT22;22591;48.314;11.562;2022-12-07T08:28:30;2.60;99.90
36586;DHT22;22591;48.314;11.562;2022-12-07T08:31:00;2.60;99.90
36586;DHT22;22591;48.314;11.562;2022-12-07T08:33:26;2.60;99.90
36586;DHT22;22591;48.314;11.562;2022-12-07T08:35:51;2.60;99.90
36586;DHT22;22591;48.314;11.562;2022-12-07T08:38:17;2.70;99.90
36586;DHT22;22591;48.314;11.562;2022-12-07T08:40:42;2.70;99.90
36586;DHT22;22591;48.314;11.562;2022-12-07T08:43:08;2.70;99.90
36586;DHT22;22591;48.314;11.562;2022-12-07T08:45:33;2.80;99.90
36586;DHT22;22591;48.314;11.562;2022-12-07T08:48:06;3.00;99.90
36586;DHT22;22591;48.314;11.562;2022-12-07T08:50:34;3.10;99.90
36586;DHT22;22591;48.314;11.562;2022-12-07T08:53:00;3.20;99.90
36586;DHT22;22591;48.314;11.562;2022-12-07T08:55:26;3.40;99.90
36586;DHT22;22591;48.314;11.562;2022-12-07T08:57:52;3.40;99.90
36586;DHT22;22591;48.314;11.562;2022-12-07T09:00:18;3.50;99.90
36586;DHT22;22591;48.314;11.562;2022-12-07T09:02:45;3.50;99.90
36586;DHT22;22591;48.314;11.562;2022-12-07T09:05:12;3.60;99.90
36586;DHT22;22591;48.314;11.562;2022-12-07T09:07:40;3.70;99.90
36586;DHT22;22591;48.314;11.562;2022-12-07T09:10:07;3.80;99.90
36586;DHT22;22591;48.314;11.562;2022-12-07T09:12:33;3.90;99.90
36586;DHT22;22591;48.314;11.562;2022-12-07T09:14:58;3.90;99.90
36586;DHT22;22591;48.314;11.562;2022-12-07T09:17:26;4.00;99.90
36586;DHT22;22591;48.314;11.562;2022-12-07T09:19:52;4.10;99.90
36586;DHT22;22591;48.314;11.562;2022-12-07T09:22:17;4.10;99.90
36586;DHT22;22591;48.314;11.562;2022-12-07T09:24:43;4.20;99.90
36586;DHT22;22591;48.314;11.562;2022-12-07T09:27:11;4.20;99.90
36586;DHT22;22591;48.314;11.562;2022-12-07T09:29:36;4.40;99.90
36586;DHT22;22591;48.314;11.562;2022-12-07T09:32:02;4.50;99.90
36586;DHT22;22591;48.314;11.562;2022-12-07T09:34:30;4.50;99.90
36586;DHT22;22591;48.314;11.562;2022-12-07T09:36:57;4.50;99.90
36586;DHT22;22591;48.314;11.562;2022-12-07T09:39:22;4.50;99.90
36586;DHT22;22591;48.314;11.562;2022-12-07T09:41:48;4.50;99.90
36586;DHT22;22591;48.314;11.562;2022-12-07T09:44:20;4.40;99.90
36586;DHT22;22591;48.314;11.562;2022-12-07T09:46:47;4.40;99.90
36586;DHT22;22591;48.314;11.562;2022-12-07T09:49:18;4.40;99.90
36586;DHT22;22591;48.314;11.562;2022-12-07T09:51:44;4.30;99.90
36586;DHT22;22591;48.314;11.562;2022-12-07T09:54:13;4.20;99.90
36586;DHT22;22591;48.314;11.562;2022-12-07T09:56:40;4.10;99.90
36586;DHT22;22591;48.314;11.562;2022-12-07T09:59:05;4.00;99.90
36586;DHT22;22591;48.314;11.562;2022-12-07T10:01:32;3.90;99.90
36586;DHT22;22591;48.314;11.562;2022-12-07T10:04:15;3.70;99.90
36586;DHT22;22591;48.314;11.562;2022-12-07T10:06:42;3.70;99.90
36586;DHT22;22591;48.314;11.562;2022-12-07T10:09:15;3.70;99.90
36586;DHT22;22591;48.314;11.562;2022-12-07T10:12:04;3.60;99.90
36586;DHT22;22591;48.314;11.562;2022-12-07T10:14:33;3.60;99.90
36586;DHT22;22591;48.314;11.562;2022-12-07T10:16:59;3.50;99.90
36586;DHT22;22591;48.314;11.562;2022-12-07T10:19:31;3.40;99.90
36586;DHT22;22591;48.314;11.562;2022-12-07T10:22:11;3.40;99.90
36586;DHT22;22591;48.314;11.562;2022-12-07T10:24:39;3.40;99.90
36586;DHT22;22591;48.314;11.562;2022-12-07T10:27:21;3.40;99.90
36586;DHT22;22591;48.314;11.562;2022-12-07T10:29:51;3.40;99.90
36586;DHT22;22591;48.314;11.562;2022-12-07T10:34:43;3.40;99.90
36586;DHT22;22591;48.314;11.562;2022-12-07T10:42:18;3.50;99.90
36586;DHT22;22591;48.314;11.562;2022-12-07T10:44:44;3.70;99.90
36586;DHT22;22591;48.314;11.562;2022-12-07T10:47:20;3.80;99.90
36586;DHT22;22591;48.314;11.562;2022-12-07T11:01:25;5.60;99.90
36586;DHT22;22591;48.314;11.562;2022-12-07T11:04:24;6.20;99.90
36586;DHT22;22591;48.314;11.562;2022-12-07T11:12:46;7.50;99.90
36586;DHT22;22591;48.314;11.562;2022-12-07T11:18:01;7.40;99.90
36586;DHT22;22591;48.314;11.562;2022-12-07T11:23:53;7.00;99.90
36586;DHT22;22591;48.314;11.562;2022-12-07T11:37:34;6.70;99.90
36586;DHT22;22591;48.314;11.562;2022-12-07T11:42:37;6.70;99.90
36586;DHT22;22591;48.314;11.562;2022-12-07T11:45:18;6.80;99.90
36586;DHT22;22591;48.314;11.562;2022-12-07T11:48:04;7.10;99.90
36586;DHT22;22591;48.314;11.562;2022-12-07T11:50:43;7.30;99.90
36586;DHT22;22591;48.314;11.562;2022-12-07T11:55:57;7.90;99.90
36586;DHT22;22591;48.314;11.562;2022-12-07T12:04:15;8.20;99.90
36586;DHT22;22591;48.314;11.562;2022-12-07T12:06:44;8.00;99.90
36586;DHT22;22591;48.314;11.562;2022-12-07T12:09:17;8.00;99.90
36586;DHT22;22591;48.314;11.562;2022-12-07T12:12:29;7.70;99.90
36586;DHT22;22591;48.314;11.562;2022-12-07T12:18:13;7.50;99.90
36586;DHT22;22591;48.314;11.562;2022-12-07T12:20:51;7.40;99.90
36586;DHT22;22591;48.314;11.562;2022-12-07T12:23:28;7.30;99.90
36586;DHT22;22591;48.314;11.562;2022-12-07T12:26:01;7.10;99.90
36586;DHT22;22591;48.314;11.562;2022-12-07T12:33:35;6.80;99.90
36586;DHT22;22591;48.314;11.562;2022-12-07T12:36:25;6.60;99.90
36586;DHT22;22591;48.314;11.562;2022-12-07T12:39:11;6.50;99.90
36586;DHT22;22591;48.314;11.562;2022-12-07T12:47:03;6.40;99.90
36586;DHT22;22591;48.314;11.562;2022-12-07T12:49:43;6.40;99.90
36586;DHT22;22591;48.314;11.562;2022-12-07T12:52:45;6.40;99.90
36586;DHT22;22591;48.314;11.562;2022-12-07T12:55:15;6.30;99.90
36586;DHT22;22591;48.314;11.562;2022-12-07T12:57:46;6.30;99.90
36586;DHT22;22591;48.314;11.562;2022-12-07T13:00:21;6.10;99.90
36586;DHT22;22591;48.314;11.562;2022-12-07T13:02:58;5.80;99.90
36586;DHT22;22591;48.314;11.562;2022-12-07T13:05:28;5.50;99.90
36586;DHT22;22591;48.314;11.562;2022-12-07T13:08:10;5.60;99.90
36586;DHT22;22591;48.314;11.562;2022-12-07T13:10:43;5.40;99.90
36586;DHT22;22591;48.314;11.562;2022-12-07T13:29:19;5.30;99.90
36586;DHT22;22591;48.314;11.562;2022-12-07T13:31:54;5.20;99.90
36586;DHT22;22591;48.314;11.562;2022-12-07T13:34:32;5.20;99.90
36586;DHT22;22591;48.314;11.562;2022-12-07T13:37:00;5.20;99.90
36586;DHT22;22591;48.314;11.562;2022-12-07T13:39:27;5.30;99.90
36586;DHT22;22591;48.314;11.562;2022-12-07T13:41:55;5.30;99.90
36586;DHT22;22591;48.314;11.562;2022-12-07T13:44:23;5.10;99.90
36586;DHT22;22591;48.314;11.562;2022-12-07T13:47:06;5.00;99.90
36586;DHT22;22591;48.314;11.562;2022-12-07T13:49:47;5.10;99.90
36586;DHT22;22591;48.314;11.562;2022-12-07T13:52:20;5.10;99.90
36586;DHT22;22591;48.314;11.562;2022-12-07T13:57:16;4.90;99.90
36586;DHT22;22591;48.314;11.562;2022-12-07T13:59:43;5.00;99.90
36586;DHT22;22591;48.314;11.562;2022-12-07T14:02:29;5.10;99.90
36586;DHT22;22591;48.314;11.562;2022-12-07T14:05:23;5.20;99.90
36586;DHT22;22591;48.314;11.562;2022-12-07T14:12:53;5.20;99.90
36586;DHT22;22591;48.314;11.562;2022-12-07T14:15:25;5.30;99.90
36586;DHT22;22591;48.314;11.562;2022-12-07T14:17:53;5.30;99.90
36586;DHT22;22591;48.314;11.562;2022-12-07T14:20:32;5.40;99.90
36586;DHT22;22591;48.314;11.562;2022-12-07T14:22:58;5.30;99.90
36586;DHT22;22591;48.314;11.562;2022-12-07T14:25:26;5.20;99.90
36586;DHT22;22591;48.314;11.562;2022-12-07T14:27:56;5.20;99.90
36586;DHT22;22591;48.314;11.562;2022-12-07T14:30:25;5.10;99.90
36586;DHT22;22591;48.314;11.562;2022-12-07T14:32:57;4.90;99.90
36586;DHT22;22591;48.314;11.562;2022-12-07T14:35:23;4.80;99.90
36586;DHT22;22591;48.314;11.562;2022-12-07T14:37:49;4.80;99.90
36586;DHT22;22591;48.314;11.562;2022-12-07T14:40:33;4.80;99.90
36586;DHT22;22591;48.314;11.562;2022-12-07T14:43:10;4.80;99.90
36586;DHT22;22591;48.314;11.562;2022-12-07T14:45:36;4.80;99.90
36586;DHT22;22591;48.314;11.562;2022-12-07T14:48:01;4.80;99.90
36586;DHT22;22591;48.314;11.562;2022-12-07T14:50:27;4.80;99.90
36586;DHT22;22591;48.314;11.562;2022-12-07T14:52:59;4.90;99.90
36586;DHT22;22591;48.314;11.562;2022-12-07T14:55:29;4.80;99.90
36586;DHT22;22591;48.314;11.562;2022-12-07T14:57:55;4.70;99.90
36586;DHT22;22591;48.314;11.562;2022-12-07T15:00:22;4.70;99.90
36586;DHT22;22591;48.314;11.562;2022-12-07T15:02:49;4.70;99.90
36586;DHT22;22591;48.314;11.562;2022-12-07T15:05:15;4.60;99.90
36586;DHT22;22591;48.314;11.562;2022-12-07T15:07:41;4.50;99.90
36586;DHT22;22591;48.314;11.562;2022-12-07T15:10:25;4.50;99.90
36586;DHT22;22591;48.314;11.562;2022-12-07T15:12:59;4.50;99.90
36586;DHT22;22591;48.314;11.562;2022-12-07T15:15:45;4.40;99.90
36586;DHT22;22591;48.314;11.562;2022-12-07T15:18:11;4.40;99.90
36586;DHT22;22591;48.314;11.562;2022-12-07T15:20:36;4.30;99.90
36586;DHT22;22591;48.314;11.562;2022-12-07T15:23:02;4.20;99.90
36586;DHT22;22591;48.314;11.562;2022-12-07T15:25:28;4.20;99.90
36586;DHT22;22591;48.314;11.562;2022-12-07T15:27:53;4.20;99.90
36586;DHT22;22591;48.314;11.562;2022-12-07T15:30:19;4.20;99.90
36586;DHT22;22591;48.314;11.562;2022-12-07T15:32:49;4.20;99.90
36586;DHT22;22591;48.314;11.562;2022-12-07T15:35:14;4.20;99.90
36586;DHT22;22591;48.314;11.562;2022-12-07T15:37:40;4.10;99.90
36586;DHT22;22591;48.314;11.562;2022-12-07T15:40:06;4.10;99.90
36586;DHT22;22591;48.314;11.562;2022-12-07T15:42:32;4.10;99.90
36586;DHT22;22591;48.314;11.562;2022-12-07T15:44:58;4.10;99.90
36586;DHT22;22591;48.314;11.562;2022-12-07T15:47:38;4.20;99.90
36586;DHT22;22591;48.314;11.562;2022-12-07T15:50:07;4.20;99.90
36586;DHT22;22591;48.314;11.562;2022-12-07T15:52:33;4.10;99.90
36586;DHT22;22591;48.314;11.562;2022-12-07T15:54:58;4.10;99.90
36586;DHT22;22591;48.314;11.562;2022-12-07T15:57:32;4.10;99.90
36586;DHT22;22591;48.314;11.562;2022-12-07T15:59:58;4.00;99.90
36586;DHT22;22591;48.314;11.562;2022-12-07T16:02:24;4.10;99.90
36586;DHT22;22591;48.314;11.562;2022-12-07T16:04:51;4.00;99.90
36586;DHT22;22591;48.314;11.562;2022-12-07T16:07:16;4.10;99.90
36586;DHT22;22591;48.314;11.562;2022-12-07T16:09:44;4.00;99.90
36586;DHT22;22591;48.314;11.562;2022-12-07T16:12:10;4.00;99.90
36586;DHT22;22591;48.314;11.562;2022-12-07T16:14:39;3.90;99.90
36586;DHT22;22591;48.314;11.562;2022-12-07T16:17:05;3.80;99.90
36586;DHT22;22591;48.314;11.562;2022-12-07T16:19:32;3.90;99.90
36586;DHT22;22591;48.314;11.562;2022-12-07T16:21:57;3.80;99.90
36586;DHT22;22591;48.314;11.562;2022-12-07T16:24:23;3.90;99.90
36586;DHT22;22591;48.314;11.562;2022-12-07T16:26:49;3.80;99.90
36586;DHT22;22591;48.314;11.562;2022-12-07T16:29:15;3.90;99.90
36586;DHT22;22591;48.314;11.562;2022-12-07T16:31:40;3.80;99.90
36586;DHT22;22591;48.314;11.562;2022-12-07T16:34:06;3.80;99.90
36586;DHT22;22591;48.314;11.562;2022-12-07T16:36:33;3.80;99.90
36586;DHT22;22591;48.314;11.562;2022-12-07T16:38:59;3.70;99.90
36586;DHT22;22591;48.314;11.562;2022-12-07T16:41:25;3.70;99.90
36586;DHT22;22591;48.314;11.562;2022-12-07T16:43:53;3.70;99.90
36586;DHT22;22591;48.314;11.562;2022-12-07T16:46:19;3.70;99.90
36586;DHT22;22591;48.314;11.562;2022-12-07T16:48:44;3.80;99.90
36586;DHT22;22591;48.314;11.562;2022-12-07T16:51:12;3.70;99.90
36586;DHT22;22591;48.314;11.562;2022-12-07T16:53:40;3.70;99.90
36586;DHT22;22591;48.314;11.562;2022-12-07T16:56:14;3.70;99.90
36586;DHT22;22591;48.314;11.562;2022-12-07T16:58:41;3.70;99.90
36586;DHT22;22591;48.314;11.562;2022-12-07T17:01:21;3.70;99.90
36586;DHT22;22591;48.314;11.562;2022-12-07T17:03:49;3.60;99.90
36586;DHT22;22591;48.314;11.562;2022-12-07T17:06:20;3.60;99.90
36586;DHT22;22591;48.314;11.562;2022-12-07T17:08:47;3.60;99.90
36586;DHT22;22591;48.314;11.562;2022-12-07T17:11:19;3.60;99.90
36586;DHT22;22591;48.314;11.562;2022-12-07T17:13:45;3.50;99.90
36586;DHT22;22591;48.314;11.562;2022-12-07T17:16:30;3.50;99.90
36586;DHT22;22591;48.314;11.562;2022-12-07T17:18:56;3.50;99.90
36586;DHT22;22591;48.314;11.562;2022-12-07T17:21:21;3.40;99.90
36586;DHT22;22591;48.314;11.562;2022-12-07T17:23:48;3.40;99.90
36586;DHT22;22591;48.314;11.562;2022-12-07T17:26:20;3.30;99.90
36586;DHT22;22591;48.314;11.562;2022-12-07T17:28:46;3.30;99.90
36586;DHT22;22591;48.314;11.562;2022-12-07T17:31:13;3.20;99.90
36586;DHT22;22591;48.314;11.562;2022-12-07T17:33:40;3.10;99.90
36586;DHT22;22591;48.314;11.562;2022-12-07T17:36:10;3.10;99.90
36586;DHT22;22591;48.314;11.562;2022-12-07T17:38:36;3.00;99.90
36586;DHT22;22591;48.314;11.562;2022-12-07T17:41:15;2.90;99.90
36586;DHT22;22591;48.314;11.562;2022-12-07T17:44:04;3.00;99.90
36586;DHT22;22591;48.314;11.562;2022-12-07T17:46:31;2.90;99.90
36586;DHT22;22591;48.314;11.562;2022-12-07T17:48:57;2.90;99.90
36586;DHT22;22591;48.314;11.562;2022-12-07T17:51:23;3.00;99.90
36586;DHT22;22591;48.314;11.562;2022-12-07T17:54:08;3.00;99.90